createdAt,value
2018-02-23T00:01:14.986Z,18.10
2018-02-23T00:03:42.552Z,30.43
2018-02-23T00:06:10.090Z,21.80
2018-02-23T00:08:37.645Z,23.67
2018-02-23T00:11:05.827Z,28.03
2018-02-23T00:13:34.860Z,22.17
2018-02-23T00:16:02.383Z,24.40
2018-02-23T00:18:30.703Z,25.77
2018-02-23T00:20:58.241Z,19.57
2018-02-23T00:23:26.574Z,26.87
2018-02-23T00:25:54.096Z,16.10
2018-02-23T00:28:22.412Z,21.30
2018-02-23T00:30:49.932Z,16.93
2018-02-23T00:33:17.445Z,19.53
2018-02-23T00:35:44.998Z,21.43
2018-02-23T00:38:12.511Z,18.80
2018-02-23T00:40:40.068Z,24.67
2018-02-23T00:43:07.591Z,21.17
2018-02-23T00:45:35.150Z,23.80
2018-02-23T00:48:02.672Z,24.63
2018-02-23T00:50:30.211Z,21.60
2018-02-23T00:52:57.740Z,19.40
2018-02-23T00:55:25.304Z,25.10
2018-02-23T00:57:52.819Z,21.07
2018-02-23T01:00:20.378Z,23.70
2018-02-23T01:02:47.890Z,22.73
2018-02-23T01:05:16.202Z,22.83
2018-02-23T01:07:43.728Z,21.83
2018-02-23T01:10:11.296Z,31.33
2018-02-23T01:15:10.581Z,21.50
2018-02-23T01:17:38.867Z,23.90
2018-02-23T01:20:07.183Z,24.97
2018-02-23T01:22:34.707Z,23.43
2018-02-23T01:25:02.263Z,23.53
2018-02-23T01:27:29.800Z,23.20
2018-02-23T01:29:57.342Z,25.07
2018-02-23T01:32:25.636Z,20.57
2018-02-23T01:34:53.952Z,24.23
2018-02-23T01:37:21.468Z,16.23
2018-02-23T01:39:49.035Z,21.03
2018-02-23T01:42:16.564Z,30.23
2018-02-23T01:44:44.111Z,21.03
2018-02-23T01:47:11.636Z,18.80
2018-02-23T01:49:39.201Z,22.40
2018-02-23T01:52:06.722Z,24.47
2018-02-23T01:54:35.049Z,24.00
2018-02-23T01:57:02.575Z,19.27
2018-02-23T01:59:30.137Z,21.13
2018-02-23T02:01:57.668Z,24.37
2018-02-23T02:04:25.220Z,22.23
2018-02-23T02:06:52.747Z,22.63
2018-02-23T02:09:20.292Z,17.90
2018-02-23T02:14:38.478Z,21.70
2018-02-23T02:17:06.003Z,24.67
2018-02-23T02:19:34.327Z,26.03
2018-02-23T02:22:01.856Z,23.40
2018-02-23T02:24:29.414Z,25.77
2018-02-23T02:26:56.940Z,22.57
2018-02-23T02:29:24.549Z,21.63
2018-02-23T02:31:52.101Z,23.30
2018-02-23T02:34:19.664Z,24.60
2018-02-23T02:36:47.196Z,22.70
2018-02-23T02:39:14.769Z,25.67
2018-02-23T02:41:43.079Z,19.87
2018-02-23T02:44:10.678Z,26.40
2018-02-23T02:46:38.199Z,25.57
2018-02-23T02:49:05.756Z,26.17
2018-02-23T02:51:33.280Z,25.20
2018-02-23T02:54:01.121Z,21.97
2018-02-23T02:56:28.641Z,25.73
2018-02-23T02:58:56.212Z,20.60
2018-02-23T03:01:23.736Z,20.77
2018-02-23T03:03:51.272Z,21.00
2018-02-23T03:06:18.820Z,20.90
2018-02-23T03:08:46.345Z,26.43
2018-02-23T03:11:13.913Z,33.30
2018-02-23T03:13:41.444Z,23.43
2018-02-23T03:16:09.004Z,23.77
2018-02-23T03:18:36.613Z,24.93
2018-02-23T03:21:04.144Z,28.13
2018-02-23T03:23:31.696Z,23.47
2018-02-23T03:25:59.996Z,20.53
2018-02-23T03:28:28.324Z,28.20
2018-02-23T03:30:55.848Z,26.13
2018-02-23T03:33:24.175Z,22.93
2018-02-23T03:35:51.691Z,23.57
2018-02-23T03:38:19.248Z,20.90
2018-02-23T03:40:46.768Z,28.83
2018-02-23T03:43:15.111Z,25.33
2018-02-23T03:45:43.494Z,22.10
2018-02-23T03:48:13.014Z,26.20
2018-02-23T03:50:40.605Z,25.13
2018-02-23T03:53:08.132Z,22.80
2018-02-23T03:55:35.700Z,26.40
2018-02-23T03:58:03.230Z,27.43
2018-02-23T04:00:30.789Z,24.90
2018-02-23T04:02:58.312Z,28.20
2018-02-23T04:05:25.863Z,25.43
2018-02-23T04:07:54.148Z,26.90
2018-02-23T04:10:22.464Z,34.80
2018-02-23T04:12:50.057Z,24.40
2018-02-23T04:15:17.616Z,32.40
2018-02-23T04:17:46.200Z,23.50
2018-02-23T04:20:15.094Z,26.40
2018-02-23T04:22:42.890Z,31.27
2018-02-23T04:25:10.468Z,25.53
2018-02-23T04:27:39.146Z,26.63
2018-02-23T04:30:06.707Z,27.27
2018-02-23T04:32:36.009Z,26.23
2018-02-23T04:35:03.573Z,32.87
2018-02-23T04:37:31.094Z,31.97
2018-02-23T04:39:58.853Z,30.13
2018-02-23T04:42:33.571Z,35.63
2018-02-23T04:45:01.916Z,28.80
2018-02-23T04:47:29.453Z,36.50
2018-02-23T04:49:57.944Z,36.87
2018-02-23T04:52:26.233Z,28.53
2018-02-23T04:54:54.551Z,40.90
2018-02-23T04:57:22.086Z,36.97
2018-02-23T04:59:49.649Z,33.73
2018-02-23T05:02:19.105Z,30.53
2018-02-23T05:04:52.337Z,35.50
2018-02-23T05:07:25.209Z,29.50
2018-02-23T05:09:52.777Z,21.83
2018-02-23T05:12:20.313Z,25.70
2018-02-23T05:14:47.877Z,26.20
2018-02-23T05:17:15.407Z,31.90
2018-02-23T05:19:42.959Z,27.03
2018-02-23T05:22:11.273Z,31.13
2018-02-23T05:24:38.825Z,28.73
2018-02-23T05:27:06.349Z,28.80
2018-02-23T05:29:33.903Z,30.03
2018-02-23T05:32:01.445Z,27.87
2018-02-23T05:34:29.000Z,35.20
2018-02-23T05:36:56.528Z,33.63
2018-02-23T05:39:24.091Z,34.10
2018-02-23T05:41:52.236Z,29.60
2018-02-23T05:44:19.869Z,30.83
2018-02-23T05:46:47.402Z,29.70
2018-02-23T05:49:14.960Z,33.77
2018-02-23T05:51:42.492Z,30.23
2018-02-23T05:54:10.031Z,32.03
2018-02-23T05:56:37.580Z,37.60
2018-02-23T05:59:05.152Z,36.67
2018-02-23T06:01:32.666Z,34.50
2018-02-23T06:04:00.991Z,36.43
2018-02-23T06:06:28.519Z,35.00
2018-02-23T06:08:56.088Z,34.20
2018-02-23T06:11:23.611Z,37.13
2018-02-23T06:13:51.942Z,26.03
2018-02-23T06:16:25.203Z,35.90
2018-02-23T06:18:58.460Z,34.63
2018-02-23T06:21:25.991Z,31.93
2018-02-23T06:23:53.546Z,29.13
2018-02-23T06:26:21.072Z,33.70
2018-02-23T06:28:48.647Z,36.47
2018-02-23T06:31:16.209Z,41.20
2018-02-23T06:33:43.768Z,44.13
2018-02-23T06:36:12.059Z,32.50
2018-02-23T06:38:39.625Z,32.23
2018-02-23T06:41:07.930Z,35.90
2018-02-23T06:43:36.386Z,38.97
2018-02-23T06:46:03.933Z,36.33
2018-02-23T06:48:31.479Z,38.43
2018-02-23T06:50:59.045Z,31.90
2018-02-23T06:53:26.585Z,43.53
2018-02-23T06:55:54.900Z,38.87
2018-02-23T06:58:22.435Z,38.20
2018-02-23T07:00:49.990Z,34.27
2018-02-23T07:03:17.513Z,33.13
2018-02-23T07:05:45.075Z,29.40
2018-02-23T07:08:13.385Z,29.10
2018-02-23T07:10:40.990Z,25.27
2018-02-23T07:13:08.528Z,22.43
2018-02-23T07:15:36.088Z,22.07
2018-02-23T07:18:04.416Z,16.50
2018-02-23T07:20:31.972Z,15.67
2018-02-23T07:22:59.486Z,26.73
2018-02-23T07:25:27.055Z,22.80
2018-02-23T07:27:54.569Z,18.87
2018-02-23T07:30:22.113Z,17.80
2018-02-23T07:32:49.632Z,25.27
2018-02-23T07:35:17.184Z,23.47
2018-02-23T07:37:45.467Z,19.27
2018-02-23T07:40:13.788Z,32.97
2018-02-23T07:42:41.317Z,50.47
2018-02-23T07:45:08.873Z,45.80
2018-02-23T07:47:36.395Z,36.53
2018-02-23T07:50:03.964Z,30.83
2018-02-23T07:52:31.487Z,27.73
2018-02-23T07:54:59.127Z,23.30
2018-02-23T07:57:26.660Z,23.80
2018-02-23T07:59:54.981Z,24.17
2018-02-23T08:02:22.519Z,16.97
2018-02-23T08:04:50.077Z,15.80
2018-02-23T08:07:18.376Z,17.40
2018-02-23T08:09:45.920Z,16.37
2018-02-23T08:12:13.444Z,11.80
2018-02-23T08:14:40.994Z,14.73
2018-02-23T08:17:09.292Z,15.67
2018-02-23T08:19:36.809Z,13.60
2018-02-23T08:22:04.364Z,11.23
2018-02-23T08:24:31.873Z,9.50
2018-02-23T08:26:59.429Z,11.03
2018-02-23T08:29:26.976Z,12.27
2018-02-23T08:31:54.544Z,10.83
2018-02-23T08:34:22.075Z,10.90
2018-02-23T08:36:49.636Z,11.17
2018-02-23T08:39:17.442Z,9.90
2018-02-23T08:41:45.817Z,11.40
2018-02-23T08:44:13.345Z,13.00
2018-02-23T08:46:40.917Z,15.40
2018-02-23T08:49:08.459Z,11.30
2018-02-23T08:51:37.740Z,9.80
2018-02-23T08:54:05.258Z,8.60
2018-02-23T08:56:32.816Z,8.10
2018-02-23T08:59:00.355Z,10.40
2018-02-23T09:01:27.931Z,9.85
2018-02-23T09:03:55.452Z,9.63
2018-02-23T09:06:23.000Z,11.33
2018-02-23T09:08:50.508Z,7.70
2018-02-23T09:11:18.052Z,8.50
2018-02-23T09:13:46.337Z,6.67
2018-02-23T09:16:14.664Z,9.10
2018-02-23T09:18:42.197Z,10.00
2018-02-23T09:21:09.739Z,8.03
2018-02-23T09:23:37.260Z,9.80
2018-02-23T09:26:04.792Z,8.53
2018-02-23T09:28:32.297Z,8.03
2018-02-23T09:30:59.836Z,9.80
2018-02-23T09:33:39.168Z,6.00
2018-02-23T09:36:06.716Z,8.53
2018-02-23T09:38:34.247Z,10.70
2018-02-23T09:41:01.779Z,9.40
2018-02-23T09:43:29.307Z,8.10
2018-02-23T09:45:56.857Z,9.07
2018-02-23T09:48:25.129Z,9.93
2018-02-23T09:50:52.680Z,8.10
2018-02-23T09:53:20.203Z,13.00
2018-02-23T09:55:47.756Z,6.33
2018-02-23T09:58:15.263Z,9.90
2018-02-23T10:00:42.819Z,7.13
2018-02-23T10:03:11.095Z,8.23
2018-02-23T10:05:38.654Z,9.53
2018-02-23T10:08:06.175Z,8.97
2018-02-23T10:10:33.720Z,8.47
2018-02-23T10:13:02.011Z,9.23
2018-02-23T10:15:29.520Z,8.23
2018-02-23T10:17:57.067Z,9.90
2018-02-23T10:20:24.583Z,14.33
2018-02-23T10:22:52.140Z,13.30
2018-02-23T10:25:19.653Z,8.77
2018-02-23T10:27:47.196Z,10.70
2018-02-23T10:30:14.749Z,9.17
2018-02-23T10:32:42.323Z,10.50
2018-02-23T10:35:10.590Z,10.30
2018-02-23T10:37:38.107Z,10.17
2018-02-23T10:40:05.624Z,7.30
2018-02-23T10:42:33.165Z,10.23
2018-02-23T10:45:00.711Z,11.63
2018-02-23T10:47:28.225Z,8.57
2018-02-23T10:49:56.539Z,9.33
2018-02-23T10:52:24.066Z,10.63
2018-02-23T10:54:51.606Z,7.83
2018-02-23T10:57:19.120Z,10.67
2018-02-23T10:59:46.624Z,9.47
2018-02-23T11:02:14.172Z,10.00
2018-02-23T11:04:42.464Z,9.43
2018-02-23T11:07:10.776Z,9.80
2018-02-23T11:09:38.290Z,8.80
2018-02-23T11:12:05.850Z,10.57
2018-02-23T11:14:33.368Z,11.93
2018-02-23T11:17:01.682Z,9.03
2018-02-23T11:19:29.199Z,9.67
2018-02-23T11:21:56.739Z,9.43
2018-02-23T11:24:24.255Z,10.60
2018-02-23T11:26:51.811Z,11.30
2018-02-23T11:29:19.331Z,11.37
2018-02-23T11:31:46.889Z,8.40
2018-02-23T11:34:14.401Z,11.70
2018-02-23T11:36:41.944Z,11.33
2018-02-23T11:39:10.222Z,11.30
2018-02-23T11:41:37.824Z,11.50
2018-02-23T11:44:05.364Z,12.90
2018-02-23T11:46:33.674Z,8.37
2018-02-23T11:49:01.220Z,9.40
2018-02-23T11:51:28.746Z,10.00
2018-02-23T11:53:56.283Z,12.60
2018-02-23T11:56:24.575Z,10.80
2018-02-23T11:58:52.888Z,12.80
2018-02-23T12:01:20.440Z,13.50
2018-02-23T12:03:48.712Z,12.97
2018-02-23T12:06:17.016Z,9.40
2018-02-23T12:08:44.568Z,12.67
2018-02-23T12:11:12.116Z,14.90
2018-02-23T12:13:39.644Z,10.43
2018-02-23T12:16:07.217Z,12.93
2018-02-23T12:18:34.735Z,9.83
2018-02-23T12:21:02.299Z,10.43
2018-02-23T12:23:29.821Z,14.90
2018-02-23T12:25:57.379Z,12.10
2018-02-23T12:28:25.717Z,13.67
2018-02-23T12:30:53.998Z,9.33
2018-02-23T12:33:21.515Z,14.27
2018-02-23T12:35:49.052Z,13.40
2018-02-23T12:38:16.575Z,13.90
2018-02-23T12:40:44.123Z,12.40
2018-02-23T12:43:11.647Z,16.80
2018-02-23T12:45:39.182Z,8.17
2018-02-23T12:48:06.705Z,18.07
2018-02-23T12:50:34.256Z,12.03
2018-02-23T12:53:01.775Z,15.37
2018-02-23T12:55:29.320Z,14.07
2018-02-23T12:57:56.842Z,11.53
2018-02-23T13:00:24.384Z,13.80
2018-02-23T13:02:51.894Z,15.07
2018-02-23T13:05:19.435Z,14.20
2018-02-23T13:07:47.691Z,20.13
2018-02-23T13:10:15.236Z,14.20
2018-02-23T13:12:43.516Z,15.30
2018-02-23T13:15:17.402Z,14.10
2018-02-23T13:17:44.936Z,11.23
2018-02-23T13:20:12.476Z,11.50
2018-02-23T13:22:39.980Z,14.60
2018-02-23T13:25:07.524Z,10.67
2018-02-23T13:27:35.811Z,14.47
2018-02-23T13:30:04.128Z,12.03
2018-02-23T13:32:31.646Z,17.53
2018-02-23T13:34:59.184Z,13.27
2018-02-23T13:37:26.701Z,14.30
2018-02-23T13:39:54.243Z,13.63
2018-02-23T13:42:23.368Z,17.33
2018-02-23T13:44:50.898Z,16.87
2018-02-23T13:47:18.414Z,13.93
2018-02-23T13:49:45.959Z,14.83
2018-02-23T13:52:13.484Z,15.07
2018-02-23T13:54:41.039Z,15.80
2018-02-23T13:57:08.545Z,14.00
2018-02-23T13:59:36.096Z,15.20
2018-02-23T14:02:03.611Z,13.73
2018-02-23T14:04:31.154Z,11.53
2018-02-23T14:07:04.447Z,20.13
2018-02-23T14:09:32.031Z,11.93
2018-02-23T14:12:00.317Z,13.37
2018-02-23T14:14:28.639Z,12.97
2018-02-23T14:16:56.143Z,14.90
2018-02-23T14:19:24.431Z,15.47
2018-02-23T14:21:51.984Z,14.60
2018-02-23T14:24:19.523Z,14.73
2018-02-23T14:26:47.805Z,16.43
2018-02-23T14:29:16.088Z,19.37
2018-02-23T14:31:44.396Z,12.77
2018-02-23T14:34:11.974Z,16.83
2018-02-23T14:36:39.529Z,15.47
2018-02-23T14:39:07.812Z,16.00
2018-02-23T14:41:36.123Z,19.67
2018-02-23T14:44:03.635Z,15.40
2018-02-23T14:46:31.175Z,15.83
2018-02-23T14:49:10.432Z,13.67
2018-02-23T14:51:37.971Z,17.10
2018-02-23T14:54:06.356Z,14.27
2018-02-23T14:56:33.867Z,13.17
2018-02-23T14:59:01.997Z,13.37
2018-02-23T15:01:29.524Z,15.50
2018-02-23T15:03:57.075Z,15.70
2018-02-23T15:06:24.591Z,16.60
2018-02-23T15:08:52.103Z,15.80
2018-02-23T15:11:20.416Z,15.60
2018-02-23T15:13:47.935Z,18.13
2018-02-23T15:16:15.521Z,16.60
2018-02-23T15:18:43.022Z,16.90
2018-02-23T15:21:11.341Z,14.37
2018-02-23T15:23:38.866Z,16.70
2018-02-23T15:26:07.203Z,15.90
2018-02-23T15:28:34.719Z,13.63
2018-02-23T15:31:14.196Z,20.93
2018-02-23T15:33:42.507Z,15.87
2018-02-23T15:36:10.028Z,16.00
2018-02-23T15:38:37.582Z,16.13
2018-02-23T15:41:05.233Z,14.10
2018-02-23T15:43:32.809Z,14.87
2018-02-23T15:46:00.324Z,16.63
2018-02-23T15:48:33.598Z,19.50
2018-02-23T15:51:06.676Z,17.20
2018-02-23T15:53:34.235Z,18.93
2018-02-23T15:56:02.521Z,16.77
2018-02-23T15:58:36.596Z,16.33
2018-02-23T16:01:04.125Z,17.80
2018-02-23T16:03:31.696Z,13.70
2018-02-23T16:05:59.219Z,15.97
2018-02-23T16:08:26.727Z,16.83
2018-02-23T16:10:54.271Z,16.50
2018-02-23T16:13:21.799Z,13.67
2018-02-23T16:15:49.340Z,12.83
2018-02-23T16:18:17.663Z,16.07
2018-02-23T16:20:45.172Z,17.13
2018-02-23T16:23:12.750Z,16.03
2018-02-23T16:25:40.615Z,16.10
2018-02-23T16:28:08.172Z,21.23
2018-02-23T16:30:35.732Z,14.13
2018-02-23T16:33:03.255Z,15.77
2018-02-23T16:35:30.815Z,13.27
2018-02-23T16:37:58.339Z,17.20
2018-02-23T16:40:25.893Z,16.27
2018-02-23T16:42:54.178Z,15.33
2018-02-23T16:45:22.489Z,16.00
2018-02-23T16:47:50.012Z,13.50
2018-02-23T16:50:17.628Z,15.67
2018-02-23T16:52:45.916Z,13.93
2018-02-23T16:55:14.227Z,15.43
2018-02-23T16:57:41.743Z,16.13
2018-02-23T17:00:09.283Z,18.30
2018-02-23T17:02:36.809Z,15.33
2018-02-23T17:05:04.344Z,15.23
2018-02-23T17:07:31.850Z,12.73
2018-02-23T17:10:00.157Z,12.90
2018-02-23T17:12:28.457Z,13.27
2018-02-23T17:14:56.012Z,14.67
2018-02-23T17:17:23.536Z,13.80
2018-02-23T17:19:51.088Z,12.93
2018-02-23T17:22:18.612Z,16.77
2018-02-23T17:24:46.157Z,13.13
2018-02-23T17:27:13.674Z,16.43
2018-02-23T17:29:41.979Z,13.50
2018-02-23T17:32:09.496Z,14.90
2018-02-23T17:34:37.037Z,12.80
2018-02-23T17:37:04.551Z,15.50
2018-02-23T17:39:32.968Z,11.53
2018-02-23T17:42:01.246Z,10.90
2018-02-23T17:44:28.792Z,13.57
2018-02-23T17:46:56.291Z,14.50
2018-02-23T17:49:23.839Z,14.23
2018-02-23T17:51:51.348Z,14.97
2018-02-23T17:54:18.870Z,19.67
2018-02-23T17:56:46.427Z,22.00
2018-02-23T17:59:13.957Z,13.70
2018-02-23T18:01:42.271Z,13.93
2018-02-23T18:04:09.833Z,14.47
2018-02-23T18:06:38.155Z,15.87
2018-02-23T18:09:05.670Z,17.20
2018-02-23T18:11:33.992Z,14.37
2018-02-23T18:14:01.556Z,18.10
2018-02-23T18:16:29.841Z,16.73
2018-02-23T18:18:57.378Z,15.43
2018-02-23T18:21:24.940Z,18.73
2018-02-23T18:23:52.457Z,17.43
2018-02-23T18:26:20.765Z,13.50
2018-02-23T18:28:48.275Z,15.40
2018-02-23T18:31:15.828Z,12.30
2018-02-23T18:33:43.338Z,13.83
2018-02-23T18:36:10.888Z,14.50
2018-02-23T18:38:38.401Z,13.40
2018-02-23T18:41:06.723Z,12.00
2018-02-23T18:43:34.231Z,15.67
2018-02-23T18:46:01.804Z,18.40
2018-02-23T18:48:29.321Z,20.63
2018-02-23T18:50:56.863Z,11.90
2018-02-23T18:53:24.380Z,10.63
2018-02-23T18:55:51.918Z,10.83
2018-02-23T18:58:20.220Z,18.20
2018-02-23T19:00:48.536Z,13.63
2018-02-23T19:03:16.072Z,18.33
2018-02-23T19:05:43.612Z,15.67
2018-02-23T19:08:11.127Z,15.70
2018-02-23T19:10:39.450Z,16.93
2018-02-23T19:13:06.961Z,13.07
2018-02-23T19:15:34.529Z,16.40
2018-02-23T19:18:02.052Z,12.47
2018-02-23T19:20:29.599Z,15.47
2018-02-23T19:22:57.887Z,13.27
2018-02-23T19:25:25.456Z,15.73
2018-02-23T19:27:53.738Z,14.70
2018-02-23T19:30:21.352Z,15.53
2018-02-23T19:32:48.864Z,23.27
2018-02-23T19:35:16.424Z,19.60
2018-02-23T19:37:43.947Z,16.90
2018-02-23T19:40:12.260Z,20.67
2018-02-23T19:42:39.779Z,18.50
2018-02-23T19:45:07.352Z,16.60
2018-02-23T19:47:34.877Z,14.33
2018-02-23T19:50:02.419Z,15.87
2018-02-23T19:52:29.938Z,19.90
2018-02-23T19:54:57.579Z,15.80
2018-02-23T19:57:25.091Z,16.93
2018-02-23T19:59:52.641Z,13.37
2018-02-23T20:02:20.173Z,15.53
2018-02-23T20:04:47.739Z,28.17
2018-02-23T20:07:15.257Z,19.73
2018-02-23T20:09:42.871Z,19.30
2018-02-23T20:12:10.770Z,15.20
2018-02-23T20:14:39.053Z,17.70
2018-02-23T20:17:06.610Z,19.23
2018-02-23T20:19:34.155Z,23.33
2018-02-23T20:22:01.763Z,14.00
2018-02-23T20:24:29.276Z,15.67
2018-02-23T20:26:56.816Z,18.17
2018-02-23T20:29:25.122Z,11.00
2018-02-23T20:31:52.639Z,19.27
2018-02-23T20:34:20.208Z,18.33
2018-02-23T20:36:47.739Z,18.87
2018-02-23T20:39:15.300Z,29.43
2018-02-23T20:41:43.617Z,29.33
2018-02-23T20:44:11.173Z,31.40
2018-02-23T20:46:39.463Z,38.70
2018-02-23T20:49:07.049Z,31.83
2018-02-23T20:51:34.568Z,39.93
2018-02-23T20:54:02.139Z,48.93
2018-02-23T20:56:29.656Z,22.83
2018-02-23T20:58:57.207Z,17.13
2018-02-23T21:01:24.724Z,14.63
2018-02-23T21:03:52.276Z,16.20
2018-02-23T21:06:19.918Z,17.97
2018-02-23T21:08:47.924Z,15.13
2018-02-23T21:11:15.452Z,14.70
2018-02-23T21:13:43.009Z,7.87
2018-02-23T21:16:10.535Z,9.80
2018-02-23T21:18:38.850Z,18.00
2018-02-23T21:21:06.439Z,8.37
2018-02-23T21:23:33.988Z,17.93
2018-02-23T21:26:01.662Z,12.73
2018-02-23T21:28:29.227Z,14.83
2018-02-23T21:30:57.527Z,10.33
2018-02-23T21:33:25.092Z,17.50
2018-02-23T21:35:52.615Z,15.00
2018-02-23T21:38:20.201Z,16.80
2018-02-23T21:40:47.722Z,16.73
2018-02-23T21:43:15.236Z,13.50
2018-02-23T21:45:42.884Z,24.83
2018-02-23T21:48:10.408Z,19.10
2018-02-23T21:50:37.957Z,18.27
2018-02-23T21:53:05.503Z,24.63
2018-02-23T21:55:33.088Z,17.60
2018-02-23T21:58:00.609Z,21.83
2018-02-23T22:00:28.923Z,22.63
2018-02-23T22:02:56.436Z,15.43
2018-02-23T22:05:23.993Z,20.80
2018-02-23T22:07:51.520Z,25.63
2018-02-23T22:10:19.081Z,22.37
2018-02-23T22:12:47.368Z,19.83
2018-02-23T22:15:15.675Z,24.50
2018-02-23T22:17:43.216Z,22.03
2018-02-23T22:20:10.768Z,27.50
2018-02-23T22:22:38.289Z,21.23
2018-02-23T22:27:40.486Z,24.90
2018-02-23T22:30:08.802Z,27.97
2018-02-23T22:32:36.339Z,26.77
2018-02-23T22:35:03.892Z,32.30
2018-02-23T22:37:31.411Z,32.07
2018-02-23T22:39:58.964Z,24.97
2018-02-23T22:42:27.245Z,27.83
2018-02-23T22:44:54.799Z,28.93
2018-02-23T22:47:22.317Z,30.70
2018-02-23T22:49:49.864Z,29.30
2018-02-23T22:52:18.155Z,33.60
2018-02-23T22:54:45.713Z,38.23
2018-02-23T22:57:13.236Z,35.70
2018-02-23T22:59:40.798Z,33.03
2018-02-23T23:02:08.319Z,38.03
2018-02-23T23:04:35.853Z,31.50
2018-02-23T23:07:03.395Z,33.73
2018-02-23T23:09:31.676Z,32.67
2018-02-23T23:11:59.223Z,42.77
2018-02-23T23:14:26.740Z,34.73
2018-02-23T23:16:54.295Z,38.77
2018-02-23T23:19:22.614Z,39.17
2018-02-23T23:21:50.164Z,40.43
2018-02-23T23:24:17.684Z,38.70
2018-02-23T23:26:45.235Z,34.93
2018-02-23T23:29:12.782Z,42.97
2018-02-23T23:31:41.125Z,36.23
2018-02-23T23:34:08.640Z,32.30
2018-02-23T23:36:36.212Z,34.10
2018-02-23T23:39:03.735Z,35.70
2018-02-23T23:41:31.285Z,34.30
2018-02-23T23:44:00.475Z,37.10
2018-02-23T23:46:28.020Z,39.37
2018-02-23T23:48:55.547Z,36.87
2018-02-23T23:51:23.099Z,20.07
2018-02-23T23:53:50.619Z,40.90
2018-02-23T23:56:18.173Z,28.53
2018-02-23T23:58:45.700Z,33.53
